METAR AND TAF INFORMATION
METAR FOR PAOM
ADDS - METARS form results

(0742 UTC 03 December 2020)
Data provider http://aviationweather.gov/metar/data/
 
METAR text: PAOM 030733Z 28011KT 9SM SCT019 M11/M12 A2941 RMK AO2 SNE28 P0000 T11061122
Conditions at: PAOM (NOME , AK, US) observed 0733 UTC 03 December 2020
Temperature: -10.6°C (13°F)
Dewpoint: -12.2°C (10°F) [RH = 88%]
Pressure (altimeter): 29.41 inches Hg (996.0 mb)
Winds: from the W (280 degrees) at 13 MPH (11 knots; 5.7 m/s)
Visibility: 9 miles (14 km)
Ceiling: at least 12,000 feet AGL
Clouds: scattered clouds at 1900 feet AGL
Weather: no significant weather observed at this time

METAR text: PAOM 030653Z 32010KT 4SM -SN BR BKN022 OVC065 M08/M11 A2939 RMK AO2 SLP952 P0000 T10831106
Conditions at: PAOM (NOME , AK, US) observed 0653 UTC 03 December 2020
Temperature: -8.3°C (17°F)
Dewpoint: -10.6°C (13°F) [RH = 83%]
Pressure (altimeter): 29.39 inches Hg (995.3 mb)
[Sea-level pressure:  995.2 mb]
Winds: from the NW (320 degrees) at 12 MPH (10 knots; 5.1 m/s)
Visibility: 4 miles ( 6 km)
Ceiling: 2200 feet AGL
Clouds: broken clouds at 2200 feet AGL
overcast cloud deck at 6500 feet AGL
Weather: -SN BR  (light snow, mist)

METAR text: PAOM 030651Z 32011KT 3SM -SN BR BKN022 OVC065 M08/M11 A2939 RMK AO2 P0000
Conditions at: PAOM (NOME , AK, US) observed 0651 UTC 03 December 2020
Temperature: -8.0°C (18°F)
Dewpoint: -11.0°C (12°F) [RH = 79%]
Pressure (altimeter): 29.39 inches Hg (995.3 mb)
Winds: from the NW (320 degrees) at 13 MPH (11 knots; 5.7 m/s)
Visibility: 3 miles ( 5 km)
Ceiling: 2200 feet AGL
Clouds: broken clouds at 2200 feet AGL
overcast cloud deck at 6500 feet AGL
Weather: -SN BR  (light snow, mist)

Forecast for: PAOM (NOME , AK, US)
Text: PAOM 030546Z 0306/0406 30008KT 2SM -SN BR BKN021
Forecast period: 0600 to 0700 UTC 03 December 2020
Forecast type: FROM: standard forecast or significant change
Winds: from the WNW (300 degrees) at 9 MPH (8 knots; 4.1 m/s)
Visibility: 2.00 miles (3.22 km)
Ceiling: 2100 feet AGL
Clouds: broken clouds at 2100 feet AGL
Weather: -SN BR  (light snow, mist)
Text: FM030700 29007KT P6SM VCSH SCT025 BKN050
Forecast period: 0700 to 0900 UTC 03 December 2020
Forecast type: FROM: standard forecast or significant change
Winds: from the WNW (290 degrees) at 8 MPH (7 knots; 3.6 m/s)
Visibility: 6 or more miles (10+ km)
Ceiling: 5000 feet AGL
Clouds: scattered clouds at 2500 feet AGL
broken clouds at 5000 feet AGL
Weather: VCSH  (showers in vicinity)
Text: FM030900 28008KT P6SM FEW040 BKN060
Forecast period: 0900 to 2100 UTC 03 December 2020
Forecast type: FROM: standard forecast or significant change
Winds: from the W (280 degrees) at 9 MPH (8 knots; 4.1 m/s)
Visibility: 6 or more miles (10+ km)
Ceiling: 6000 feet AGL
Clouds: few clouds at 4000 feet AGL
broken clouds at 6000 feet AGL
Weather: no significant weather forecast for this period
Text: FM032100 VRB04KT P6SM BKN035 OVC050
Forecast period: 2100 UTC 03 December 2020 to 0600 UTC 04 December 2020
Forecast type: FROM: standard forecast or significant change
Winds: variable direction winds at 5 MPH (4 knots; 2.1 m/s)
Visibility: 6 or more miles (10+ km)
Ceiling: 3500 feet AGL
Clouds: broken clouds at 3500 feet AGL
overcast cloud deck at 5000 feet AGL
Weather: no significant weather forecast for this period

 AIRPORT MAP

 RUNWAY INFORMATION
Runway 03 Runway length 5576 ft Runway width 150 ft
Runway elevation 12 ft Runway displaced threshold 0 ft Runway heading 42
Runway 21 Runway length 5576 ft Runway width 150 ft
Runway elevation 36 ft Runway displaced threshold 0 ft Runway heading 222
Runway 10 Runway length 6001 ft Runway width 150 ft
Runway elevation 16 ft Runway displaced threshold 0 ft Runway heading 110
Runway 28 Runway length 6001 ft Runway width 150 ft
Runway elevation 21 ft Runway displaced threshold 0 ft Runway heading 290

 AIRPORT FREQUENCIES
Type ASOS Name ASOS Frequency 119.925 MHZ
Type ATIS Name ATIS Frequency 119.925 MHZ
Type CNTR Name ANCHORAGE Frequency 133.3 MHZ
Type CTAF Name CTAF Frequency 123.6 MHZ
Type FSS Name RDO Frequency 122.45 MHZ
Type MISC Name TWEB Frequency 115 MHZ

 AIRPORT NEAR NAVIGATION AIDS
Type NDB Name Fort Davis Frequency 529 KHZ
Type VOR-DME Name Nome Frequency 115000 KHZ
Type NDB-DME Name Gold Frequency 208 KHZ



Powered by Virtual Airlines Manager [v2.6.2]